Time;durP1;ratioP1;P1;durP2;ratioP2;P2;SDS_P1;SDS_P2;PMS_P1;PMS_P2;Temp;Humidity;BMP_temperature;BMP_pressure;BME280_temperature;BME280_humidity;BME280_pressure;Samples;Min_cycle;Max_cycle;Signal;HPM_P1;HPM_P2
2021/05/10 00:01:14;;;;;;;2.75;2.53;;;;;23.50;99840.00;;;;5079094;28;20191;-76
2021/05/10 00:03:41;;;;;;;2.67;2.40;;;;;23.50;99833.00;;;;5066677;28;20253;-76
2021/05/10 00:06:08;;;;;;;4.00;2.40;;;;;23.40;99830.00;;;;5066192;28;20956;-76
2021/05/10 00:08:35;;;;;;;1.85;1.73;;;;;23.40;99841.00;;;;5067418;28;20620;-76
2021/05/10 00:11:02;;;;;;;4.13;2.30;;;;;23.40;99854.00;;;;5081803;28;20199;-76
2021/05/10 00:13:30;;;;;;;4.72;2.45;;;;;23.40;99853.00;;;;5072771;28;20201;-76
2021/05/10 00:15:57;;;;;;;3.08;2.50;;;;;23.40;99860.00;;;;5068835;28;20256;-76
2021/05/10 00:18:23;;;;;;;4.72;2.30;;;;;23.30;99857.00;;;;5068590;28;20197;-75
2021/05/10 00:20:50;;;;;;;9.23;2.30;;;;;23.30;99855.00;;;;5068396;28;20203;-76
2021/05/10 00:23:18;;;;;;;2.50;2.30;;;;;23.30;99855.00;;;;5069665;28;20198;-76
2021/05/10 00:25:46;;;;;;;2.53;2.20;;;;;23.30;99850.00;;;;5087263;28;21042;-76
2021/05/10 00:28:13;;;;;;;3.03;2.60;;;;;23.30;99843.00;;;;5077262;28;20245;-75
2021/05/10 00:30:41;;;;;;;3.80;2.45;;;;;23.30;99845.00;;;;5078135;28;20203;-76
2021/05/10 00:33:08;;;;;;;3.65;2.40;;;;;23.30;99844.00;;;;5068200;28;20203;-75
2021/05/10 00:35:35;;;;;;;2.70;2.50;;;;;23.20;99834.00;;;;5068417;28;20385;-76
2021/05/10 00:38:03;;;;;;;3.13;2.72;;;;;23.20;99826.00;;;;5079485;28;20240;-76
2021/05/10 00:40:31;;;;;;;2.60;2.28;;;;;23.20;99823.00;;;;5067862;28;20203;-76
2021/05/10 00:42:59;;;;;;;3.95;2.53;;;;;23.20;99828.00;;;;5068651;28;20191;-75
2021/05/10 00:45:27;;;;;;;2.90;2.65;;;;;23.20;99826.00;;;;5069590;28;20241;-76
2021/05/10 00:47:54;;;;;;;2.50;2.30;;;;;23.10;99825.00;;;;5072893;28;20723;-76
2021/05/10 00:50:22;;;;;;;2.35;2.08;;;;;23.10;99824.00;;;;5071281;28;20187;-76
2021/05/10 00:52:49;;;;;;;3.03;2.72;;;;;23.10;99818.00;;;;5071625;28;20578;-76
2021/05/10 00:55:16;;;;;;;3.17;2.55;;;;;23.10;99812.00;;;;5071689;28;20198;-75
2021/05/10 00:57:47;;;;;;;3.13;2.70;;;;;23.10;99809.00;;;;5071018;28;20256;-76
2021/05/10 01:00:15;;;;;;;2.83;2.50;;;;;23.10;99804.00;;;;5072139;28;20206;-76
2021/05/10 01:02:43;;;;;;;2.80;2.33;;;;;23.10;99794.00;;;;5080490;28;20220;-76
2021/05/10 01:05:13;;;;;;;3.30;2.85;;;;;23.10;99795.00;;;;5083167;28;20206;-76
2021/05/10 01:07:40;;;;;;;3.47;2.85;;;;;23.10;99795.00;;;;5075182;28;20225;-76
2021/05/10 01:10:09;;;;;;;3.15;2.85;;;;;23.00;99785.00;;;;5075726;28;20251;-75
2021/05/10 01:12:37;;;;;;;3.03;2.53;;;;;23.00;99785.00;;;;5071140;28;20199;-76
2021/05/10 01:15:07;;;;;;;3.50;2.78;;;;;23.00;99781.00;;;;5069921;28;20194;-76
2021/05/10 01:17:35;;;;;;;3.00;2.72;;;;;23.00;99779.00;;;;5071272;28;20761;-76
2021/05/10 01:20:03;;;;;;;2.92;2.50;;;;;23.00;99769.00;;;;5070464;28;20210;-76
2021/05/10 01:22:39;;;;;;;3.22;2.50;;;;;22.90;99775.00;;;;5068492;28;20199;-76
2021/05/10 01:25:08;;;;;;;3.70;2.40;;;;;23.00;99773.00;;;;5070157;28;20222;-76
2021/05/10 01:27:35;;;;;;;3.50;2.50;;;;;23.00;99776.00;;;;5082066;28;20221;-76
2021/05/10 01:30:04;;;;;;;3.30;2.97;;;;;22.90;99763.00;;;;5087869;28;20195;-76
2021/05/10 01:32:30;;;;;;;3.08;2.45;;;;;22.90;99761.00;;;;5084530;28;20191;-76
2021/05/10 01:34:57;;;;;;;2.53;2.33;;;;;22.90;99757.00;;;;5080494;28;20187;-76
2021/05/10 01:37:24;;;;;;;2.22;2.03;;;;;22.90;99752.00;;;;5090376;28;20201;-76
2021/05/10 01:39:51;;;;;;;2.63;2.25;;;;;22.90;99755.00;;;;5089359;28;20680;-76
2021/05/10 01:42:18;;;;;;;2.60;1.83;;;;;22.90;99758.00;;;;5076893;28;20251;-76
2021/05/10 01:44:45;;;;;;;2.83;2.40;;;;;22.80;99749.00;;;;5070260;28;20199;-76
2021/05/10 01:47:12;;;;;;;2.72;2.38;;;;;22.80;99752.00;;;;5070431;28;20222;-76
2021/05/10 01:49:38;;;;;;;3.75;2.20;;;;;22.80;99750.00;;;;5070366;28;20199;-76
2021/05/10 01:52:05;;;;;;;2.90;2.60;;;;;22.80;99755.00;;;;5070060;28;20664;-76
2021/05/10 01:54:32;;;;;;;2.53;2.22;;;;;22.80;99751.00;;;;5070396;28;20202;-76
2021/05/10 01:56:59;;;;;;;2.40;2.05;;;;;22.80;99763.00;;;;5069772;28;20202;-76
2021/05/10 01:59:26;;;;;;;3.05;2.70;;;;;22.80;99754.00;;;;5069768;28;20206;-76
2021/05/10 02:01:53;;;;;;;2.47;2.28;;;;;22.80;99750.00;;;;5071059;28;20195;-76
2021/05/10 02:04:20;;;;;;;2.17;1.98;;;;;22.80;99739.00;;;;5069263;28;20199;-76
2021/05/10 02:06:46;;;;;;;2.55;2.35;;;;;22.70;99739.00;;;;5070947;28;20202;-76
2021/05/10 02:09:13;;;;;;;2.42;2.22;;;;;22.70;99735.00;;;;5070207;28;20222;-76
2021/05/10 02:11:40;;;;;;;2.63;2.40;;;;;22.70;99721.00;;;;5070931;28;20199;-76
2021/05/10 02:14:07;;;;;;;3.85;2.47;;;;;22.70;99704.00;;;;5088261;28;20205;-76
2021/05/10 02:16:34;;;;;;;2.50;2.30;;;;;22.70;99702.00;;;;5076713;28;20207;-76
2021/05/10 02:19:01;;;;;;;3.58;3.03;;;;;22.70;99700.00;;;;5070244;28;20211;-76
2021/05/10 02:21:30;;;;;;;3.65;2.67;;;;;22.60;99692.00;;;;5070183;28;20229;-76
2021/05/10 02:23:58;;;;;;;4.47;2.50;;;;;22.70;99693.00;;;;5069399;28;20661;-76
2021/05/10 02:26:25;;;;;;;4.88;2.53;;;;;22.70;99684.00;;;;5070607;28;20593;-76
2021/05/10 02:28:52;;;;;;;5.63;2.83;;;;;22.60;99679.00;;;;5070658;28;20692;-76
2021/05/10 02:31:19;;;;;;;2.65;2.40;;;;;22.60;99672.00;;;;5069815;28;20206;-76
2021/05/10 02:33:46;;;;;;;2.95;2.65;;;;;22.60;99670.00;;;;5069869;28;20199;-76
2021/05/10 02:36:12;;;;;;;2.72;2.35;;;;;22.60;99659.00;;;;5069194;28;20202;-76
2021/05/10 02:38:39;;;;;;;2.88;2.65;;;;;22.60;99668.00;;;;5069772;28;20205;-76
2021/05/10 02:41:06;;;;;;;4.55;2.38;;;;;22.50;99664.00;;;;5069397;28;20473;-76
2021/05/10 02:43:33;;;;;;;2.80;2.60;;;;;22.50;99652.00;;;;5069985;28;20202;-76
2021/05/10 02:46:00;;;;;;;3.53;2.78;;;;;22.50;99651.00;;;;5069065;28;20198;-76
2021/05/10 02:48:27;;;;;;;3.92;2.97;;;;;22.40;99653.00;;;;5072872;28;20264;-76
2021/05/10 02:50:54;;;;;;;3.72;3.17;;;;;22.40;99656.00;;;;5069410;28;20195;-76
2021/05/10 02:53:21;;;;;;;3.40;3.10;;;;;22.40;99649.00;;;;5069090;28;20199;-76
2021/05/10 02:55:47;;;;;;;3.30;2.45;;;;;22.40;99649.00;;;;5069929;28;20199;-76
2021/05/10 02:58:14;;;;;;;4.25;2.45;;;;;22.30;99646.00;;;;5068752;28;20202;-76
2021/05/10 03:00:41;;;;;;;3.17;2.90;;;;;22.30;99646.00;;;;5069243;28;20657;-76
2021/05/10 03:03:07;;;;;;;3.08;2.85;;;;;22.30;99631.00;;;;5080100;28;20190;-76
2021/05/10 03:05:36;;;;;;;3.47;3.10;;;;;22.30;99631.00;;;;5069409;28;20225;-76
2021/05/10 03:08:02;;;;;;;2.95;2.70;;;;;22.20;99632.00;;;;5068304;28;21002;-76
2021/05/10 03:10:29;;;;;;;4.63;3.30;;;;;22.20;99622.00;;;;5068614;28;20213;-75
2021/05/10 03:12:56;;;;;;;3.38;2.92;;;;;22.20;99628.00;;;;5074164;28;20203;-76
2021/05/10 03:15:23;;;;;;;4.47;3.53;;;;;22.20;99630.00;;;;5068970;28;20199;-76
2021/05/10 03:17:51;;;;;;;3.22;2.92;;;;;22.20;99629.00;;;;5068882;28;20218;-76
2021/05/10 03:20:20;;;;;;;3.17;2.42;;;;;22.10;99629.00;;;;5068868;28;20246;-76
2021/05/10 03:22:51;;;;;;;3.20;2.90;;;;;22.10;99630.00;;;;5069082;28;20199;-76
2021/05/10 03:25:18;;;;;;;3.10;2.80;;;;;22.20;99623.00;;;;5068781;28;20190;-76
2021/05/10 03:27:45;;;;;;;3.10;2.80;;;;;22.10;99615.00;;;;5068905;28;20268;-75
2021/05/10 03:30:15;;;;;;;4.20;2.65;;;;;22.10;99618.00;;;;5069406;28;20240;-76
2021/05/10 03:32:42;;;;;;;5.43;3.22;;;;;22.20;99615.00;;;;5072091;28;20202;-76
2021/05/10 03:35:10;;;;;;;3.75;3.10;;;;;22.20;99619.00;;;;5067998;28;20195;-76
2021/05/10 03:37:38;;;;;;;4.50;3.10;;;;;22.10;99618.00;;;;5069464;28;20211;-76
2021/05/10 03:40:07;;;;;;;4.85;3.42;;;;;22.10;99615.00;;;;5068551;28;20738;-76
2021/05/10 03:42:34;;;;;;;3.45;3.15;;;;;22.10;99618.00;;;;5068493;28;20771;-76
2021/05/10 03:45:01;;;;;;;4.90;3.15;;;;;22.20;99621.00;;;;5068647;28;20209;-76
2021/05/10 03:47:39;;;;;;;2.80;2.60;;;;;22.10;99620.00;;;;5068498;28;20241;-76
2021/05/10 03:50:07;;;;;;;3.78;3.05;;;;;22.10;99620.00;;;;5068073;28;20193;-76
2021/05/10 03:52:34;;;;;;;3.03;2.50;;;;;22.10;99625.00;;;;5079297;28;20607;-76
2021/05/10 03:55:00;;;;;;;2.95;2.30;;;;;22.20;99618.00;;;;5076185;28;20195;-76
2021/05/10 03:57:28;;;;;;;2.47;2.05;;;;;22.20;99623.00;;;;5069102;28;20203;-76
2021/05/10 03:59:55;;;;;;;3.35;2.42;;;;;22.20;99622.00;;;;5068106;28;20191;-77
2021/05/10 04:02:22;;;;;;;2.67;2.33;;;;;22.20;99617.00;;;;5068248;28;20190;-77
2021/05/10 04:04:53;;;;;;;4.00;1.80;;;;;22.20;99618.00;;;;5068765;28;20229;-78
2021/05/10 04:07:31;;;;;;;1.48;1.38;;;;;22.30;99615.00;;;;5072312;28;20225;-77
2021/05/10 04:15:28;;;;;;;1.48;1.27;;;;;22.40;99624.00;;;;5069586;28;20222;-77
2021/05/10 04:17:55;;;;;;;2.13;1.58;;;;;22.40;99636.00;;;;5082447;28;20210;-77
2021/05/10 04:20:22;;;;;;;2.00;1.17;;;;;22.40;99633.00;;;;5072094;28;20190;-77
2021/05/10 04:22:49;;;;;;;2.83;1.35;;;;;22.50;99632.00;;;;5075815;28;20207;-77
2021/05/10 04:25:15;;;;;;;4.07;1.40;;;;;22.50;99641.00;;;;5084074;28;20194;-77
2021/05/10 04:27:43;;;;;;;1.77;1.08;;;;;22.60;99647.00;;;;5081721;28;20232;-77
2021/05/10 04:30:11;;;;;;;2.35;1.20;;;;;22.60;99647.00;;;;5078689;28;20206;-77
2021/05/10 04:32:38;;;;;;;2.15;1.20;;;;;22.60;99647.00;;;;5078326;28;20560;-77
2021/05/10 04:35:05;;;;;;;1.30;0.63;;;;;22.70;99647.00;;;;5078803;28;20199;-77
2021/05/10 04:37:32;;;;;;;9.38;0.80;;;;;22.70;99645.00;;;;5079810;28;20565;-77
2021/05/10 04:39:59;;;;;;;1.55;1.20;;;;;22.70;99654.00;;;;5079461;28;20186;-77
2021/05/10 04:42:25;;;;;;;1.75;1.08;;;;;22.80;99650.00;;;;5078631;28;20194;-77
2021/05/10 04:44:53;;;;;;;1.20;0.95;;;;;22.80;99662.00;;;;5090793;28;20190;-77
2021/05/10 04:47:20;;;;;;;3.17;1.00;;;;;22.80;99673.00;;;;5075485;28;20202;-76
2021/05/10 04:49:47;;;;;;;1.60;1.13;;;;;22.80;99677.00;;;;5086559;28;20202;-77
2021/05/10 04:52:13;;;;;;;3.70;1.00;;;;;22.80;99691.00;;;;5091899;28;20206;-77
2021/05/10 04:54:40;;;;;;;2.90;0.88;;;;;22.90;99691.00;;;;5092555;28;20209;-77
2021/05/10 04:57:07;;;;;;;1.50;1.05;;;;;22.90;99702.00;;;;5090941;28;20190;-77
2021/05/10 04:59:34;;;;;;;1.52;0.98;;;;;22.90;99704.00;;;;5091319;28;20251;-77
2021/05/10 05:02:01;;;;;;;2.17;1.27;;;;;23.00;99710.00;;;;5081206;28;20222;-78
2021/05/10 05:04:28;;;;;;;2.63;1.20;;;;;23.00;99707.00;;;;5076074;28;20218;-77
2021/05/10 05:06:54;;;;;;;2.13;1.00;;;;;23.10;99719.00;;;;5072470;28;20199;-78
2021/05/10 05:09:21;;;;;;;1.98;1.00;;;;;23.10;99713.00;;;;5070537;28;20321;-79
2021/05/10 05:11:48;;;;;;;1.00;0.90;;;;;23.10;99714.00;;;;5089792;28;20198;-79
2021/05/10 05:14:14;;;;;;;3.72;1.42;;;;;23.20;99721.00;;;;5082491;28;20195;-79
2021/05/10 05:16:41;;;;;;;1.25;0.90;;;;;23.10;99699.00;;;;5087979;28;20229;-79
2021/05/10 05:19:09;;;;;;;2.47;1.25;;;;;23.20;99700.00;;;;5077985;28;20205;-78
2021/05/10 05:21:35;;;;;;;2.40;1.23;;;;;23.20;99706.00;;;;5071426;28;20203;-82
2021/05/10 05:24:02;;;;;;;2.25;1.13;;;;;23.20;99703.00;;;;5072012;28;20206;-82
2021/05/10 05:26:29;;;;;;;1.50;0.88;;;;;23.20;99732.00;;;;5080385;28;20194;-81
2021/05/10 05:28:56;;;;;;;1.88;1.20;;;;;23.20;99769.00;;;;5071692;28;20272;-86
2021/05/10 05:31:23;;;;;;;4.30;1.35;;;;;23.20;99799.00;;;;5072187;28;20248;-84
2021/05/10 05:33:50;;;;;;;3.85;1.20;;;;;23.20;99822.00;;;;5070468;28;20614;-83
2021/05/10 05:36:18;;;;;;;2.63;1.05;;;;;23.20;99868.00;;;;5072047;28;20207;-82
2021/05/10 05:38:44;;;;;;;1.00;0.80;;;;;23.20;99880.00;;;;5071622;28;20210;-80
2021/05/10 05:41:12;;;;;;;1.35;0.95;;;;;23.10;99886.00;;;;5070708;28;20669;-79
2021/05/10 05:43:39;;;;;;;1.80;0.50;;;;;23.10;99907.00;;;;5072117;28;20233;-78
2021/05/10 05:46:12;;;;;;;1.38;0.75;;;;;23.10;99920.00;;;;5081694;28;20226;-77
2021/05/10 05:48:38;;;;;;;0.70;0.55;;;;;23.00;99910.00;;;;5090265;28;20696;-78
2021/05/10 05:51:06;;;;;;;2.38;0.60;;;;;22.90;99925.00;;;;5074514;28;20210;-78
2021/05/10 05:53:33;;;;;;;1.02;0.45;;;;;22.90;99934.00;;;;5071886;28;20203;-79
2021/05/10 05:56:01;;;;;;;0.60;0.32;;;;;22.80;99937.00;;;;5070712;28;20210;-81
2021/05/10 05:58:27;;;;;;;0.43;0.40;;;;;22.80;99931.00;;;;5071258;28;20210;-83
2021/05/10 06:00:54;;;;;;;0.32;0.30;;;;;22.70;99936.00;;;;5071759;28;20198;-81
2021/05/10 06:03:21;;;;;;;2.72;0.50;;;;;22.70;99937.00;;;;5070966;28;20194;-79
2021/05/10 06:05:48;;;;;;;0.80;0.47;;;;;22.70;99941.00;;;;5071160;28;20207;-79
2021/05/10 06:08:15;;;;;;;1.83;0.63;;;;;22.70;99949.00;;;;5069967;28;20223;-81
2021/05/10 06:10:43;;;;;;;1.20;0.55;;;;;22.70;99950.00;;;;5070735;28;20195;-82
2021/05/10 06:13:10;;;;;;;1.05;0.60;;;;;22.70;99951.00;;;;5070249;28;20255;-81
2021/05/10 06:15:37;;;;;;;0.85;0.30;;;;;22.70;99968.00;;;;5070942;28;20198;-82
2021/05/10 06:18:07;;;;;;;0.38;0.38;;;;;22.60;99948.00;;;;5070360;28;20222;-79
2021/05/10 06:20:34;;;;;;;0.40;0.38;;;;;22.60;99968.00;;;;5069319;28;20254;-82
2021/05/10 06:23:03;;;;;;;1.98;0.38;;;;;22.50;99965.00;;;;5069449;28;20199;-81
2021/05/10 06:25:29;;;;;;;0.73;0.20;;;;;22.50;99975.00;;;;5069810;28;20203;-80
2021/05/10 06:27:57;;;;;;;2.63;0.65;;;;;22.50;99976.00;;;;5079565;28;20226;-81
2021/05/10 06:30:24;;;;;;;0.70;0.20;;;;;22.50;99976.00;;;;5090589;28;20205;-80
2021/05/10 06:32:51;;;;;;;0.30;0.30;;;;;22.50;99968.00;;;;5089834;28;20193;-80
2021/05/10 06:35:18;;;;;;;0.45;0.30;;;;;22.50;99960.00;;;;5089864;28;20228;-81
2021/05/10 06:37:45;;;;;;;0.60;0.38;;;;;22.60;99975.00;;;;5090141;28;20187;-81
2021/05/10 06:40:13;;;;;;;0.50;0.40;;;;;22.60;99978.00;;;;5089772;28;20225;-79
2021/05/10 06:42:40;;;;;;;2.15;0.45;;;;;22.70;99971.00;;;;5090021;28;20202;-81
2021/05/10 06:45:09;;;;;;;0.70;0.40;;;;;22.70;99972.00;;;;5078090;28;20214;-78
2021/05/10 06:47:39;;;;;;;0.73;0.30;;;;;22.80;99979.00;;;;5070192;28;20223;-81
2021/05/10 06:50:07;;;;;;;0.52;0.40;;;;;22.80;99968.00;;;;5069228;28;20207;-80
2021/05/10 06:52:34;;;;;;;0.50;0.30;;;;;22.90;99968.00;;;;5069468;28;20207;-80
2021/05/10 06:55:01;;;;;;;0.60;0.40;;;;;23.00;99987.00;;;;5068674;28;20203;-80
2021/05/10 06:57:28;;;;;;;0.50;0.50;;;;;23.00;100003.00;;;;5070002;28;20214;-80
2021/05/10 06:59:55;;;;;;;0.70;0.43;;;;;23.10;99981.00;;;;5069274;28;20199;-81
2021/05/10 07:02:24;;;;;;;0.70;0.40;;;;;23.10;100005.00;;;;5082308;28;20206;-82
2021/05/10 07:04:51;;;;;;;0.63;0.50;;;;;23.20;99998.00;;;;5089603;28;20676;-80
2021/05/10 07:07:18;;;;;;;0.50;0.50;;;;;23.20;100009.00;;;;5088611;28;20206;-82
2021/05/10 07:09:45;;;;;;;1.30;0.57;;;;;23.20;100002.00;;;;5089181;28;20225;-82
2021/05/10 07:12:13;;;;;;;0.75;0.60;;;;;23.20;100010.00;;;;5089789;28;20206;-79
2021/05/10 07:14:40;;;;;;;0.73;0.73;;;;;23.20;100010.00;;;;5088977;28;20209;-81
2021/05/10 07:17:07;;;;;;;1.35;0.80;;;;;23.30;100013.00;;;;5078773;28;20226;-82
2021/05/10 07:19:35;;;;;;;1.88;0.63;;;;;23.30;100022.00;;;;5076100;28;20275;-84
2021/05/10 07:22:02;;;;;;;1.65;1.00;;;;;23.30;100015.00;;;;5070201;28;20203;-80
2021/05/10 07:24:29;;;;;;;2.95;0.80;;;;;23.40;100011.00;;;;5069240;28;20195;-79
2021/05/10 07:26:56;;;;;;;1.25;0.95;;;;;23.40;100019.00;;;;5071067;28;20252;-80
2021/05/10 07:29:23;;;;;;;1.13;0.70;;;;;23.40;100026.00;;;;5069536;28;20223;-80
2021/05/10 07:31:50;;;;;;;1.10;0.82;;;;;23.40;100028.00;;;;5069446;28;20209;-80
2021/05/10 07:34:17;;;;;;;1.15;0.70;;;;;23.40;100035.00;;;;5069450;28;20202;-79
2021/05/10 07:36:44;;;;;;;1.48;0.77;;;;;23.40;100040.00;;;;5073706;28;20199;-80
2021/05/10 07:39:11;;;;;;;2.65;0.77;;;;;23.40;100031.00;;;;5067956;28;20206;-83
2021/05/10 07:41:38;;;;;;;1.00;0.68;;;;;23.30;100047.00;;;;5073353;28;20202;-82
2021/05/10 07:44:05;;;;;;;1.30;0.80;;;;;23.30;100054.00;;;;5068695;28;20203;-80
2021/05/10 07:46:32;;;;;;;0.80;0.75;;;;;23.30;100075.00;;;;5073316;28;20195;-80
2021/05/10 07:48:59;;;;;;;0.60;0.60;;;;;23.30;100068.00;;;;5069335;28;20223;-80
2021/05/10 07:51:25;;;;;;;0.65;0.60;;;;;23.20;100067.00;;;;5073028;28;20260;-80
2021/05/10 07:53:54;;;;;;;1.77;0.90;;;;;23.10;100079.00;;;;5080876;28;20660;-80
2021/05/10 07:56:21;;;;;;;2.47;0.70;;;;;23.10;100086.00;;;;5068953;28;20704;-81
2021/05/10 07:58:48;;;;;;;1.25;0.68;;;;;23.10;100068.00;;;;5073109;28;20211;-80
2021/05/10 08:01:15;;;;;;;1.55;0.88;;;;;23.00;100096.00;;;;5087676;28;20194;-80
2021/05/10 08:03:43;;;;;;;0.70;0.60;;;;;23.00;100114.00;;;;5074537;28;20575;-81
2021/05/10 08:06:10;;;;;;;1.63;0.60;;;;;23.00;100105.00;;;;5080290;28;20226;-81
2021/05/10 08:08:37;;;;;;;0.50;0.50;;;;;23.00;100113.00;;;;5069268;28;20239;-81
2021/05/10 08:11:05;;;;;;;3.03;0.70;;;;;22.90;100122.00;;;;5081442;28;20696;-81
2021/05/10 08:13:32;;;;;;;1.05;0.70;;;;;23.00;100123.00;;;;5070298;28;20727;-80
2021/05/10 08:15:59;;;;;;;0.85;0.70;;;;;23.00;100119.00;;;;5069275;28;20195;-80
2021/05/10 08:18:26;;;;;;;0.85;0.70;;;;;22.90;100122.00;;;;5077249;28;20199;-81
2021/05/10 08:20:57;;;;;;;1.08;0.73;;;;;22.90;100130.00;;;;5086897;28;20202;-80
2021/05/10 08:23:24;;;;;;;1.00;0.73;;;;;22.90;100137.00;;;;5080805;28;20224;-81
2021/05/10 08:25:52;;;;;;;1.17;1.00;;;;;22.80;100160.00;;;;5083177;28;20202;-80
2021/05/10 08:28:20;;;;;;;0.50;0.50;;;;;22.80;100167.00;;;;5071919;28;20644;-79
2021/05/10 08:30:47;;;;;;;0.90;0.52;;;;;22.70;100163.00;;;;5070097;28;20213;-80
2021/05/10 08:33:14;;;;;;;0.60;0.50;;;;;22.60;100162.00;;;;5084691;28;20243;-80
2021/05/10 08:35:41;;;;;;;1.00;0.60;;;;;22.60;100180.00;;;;5081370;28;20570;-80
2021/05/10 08:38:08;;;;;;;0.93;0.50;;;;;22.50;100185.00;;;;5073499;28;20195;-80
2021/05/10 08:40:34;;;;;;;0.63;0.45;;;;;22.40;100200.00;;;;5075804;28;20199;-80
2021/05/10 08:43:01;;;;;;;1.42;0.88;;;;;22.30;100192.00;;;;5069067;28;20222;-81
2021/05/10 08:45:29;;;;;;;1.17;0.70;;;;;22.20;100191.00;;;;5071514;28;20741;-81
2021/05/10 08:48:00;;;;;;;0.93;0.50;;;;;22.10;100207.00;;;;5087501;28;20222;-80
2021/05/10 08:50:27;;;;;;;0.77;0.50;;;;;22.20;100196.00;;;;5071329;28;20561;-81
2021/05/10 08:52:54;;;;;;;0.52;0.47;;;;;22.20;100195.00;;;;5078113;28;20203;-80
2021/05/10 08:55:22;;;;;;;0.80;0.40;;;;;22.20;100215.00;;;;5082313;28;20608;-80
2021/05/10 08:57:49;;;;;;;0.43;0.43;;;;;22.30;100208.00;;;;5070352;28;20206;-81
2021/05/10 09:00:18;;;;;;;1.05;0.65;;;;;22.30;100214.00;;;;5073484;28;20206;-80
2021/05/10 09:02:46;;;;;;;1.70;0.50;;;;;22.40;100214.00;;;;5076950;28;20195;-81
2021/05/10 09:05:15;;;;;;;1.02;0.60;;;;;22.40;100223.00;;;;5075401;28;20209;-81
2021/05/10 09:07:43;;;;;;;1.48;0.52;;;;;22.50;100242.00;;;;5074457;28;20272;-81
2021/05/10 09:10:12;;;;;;;2.13;0.43;;;;;22.50;100242.00;;;;5080364;28;20696;-80
2021/05/10 09:12:44;;;;;;;0.57;0.55;;;;;22.50;100249.00;;;;5084406;28;20193;-80
2021/05/10 09:15:18;;;;;;;0.93;0.73;;;;;22.50;100264.00;;;;5081561;28;20195;-80
2021/05/10 09:17:50;;;;;;;1.67;0.80;;;;;22.60;100260.00;;;;5082119;28;20228;-81
2021/05/10 09:20:19;;;;;;;0.82;0.50;;;;;22.60;100265.00;;;;5074249;28;20199;-81
2021/05/10 09:22:51;;;;;;;1.38;0.52;;;;;22.60;100268.00;;;;5073228;28;20579;-81
2021/05/10 09:25:18;;;;;;;0.88;0.57;;;;;22.60;100265.00;;;;5073402;28;20648;-81
2021/05/10 09:27:46;;;;;;;1.13;0.60;;;;;22.60;100271.00;;;;5073131;28;20206;-81
2021/05/10 09:30:15;;;;;;;0.80;0.60;;;;;22.60;100266.00;;;;5077573;28;20616;-80
2021/05/10 09:32:54;;;;;;;1.35;0.60;;;;;22.60;100278.00;;;;5072519;28;20198;-80
2021/05/10 09:35:26;;;;;;;1.02;0.68;;;;;22.60;100276.00;;;;5079757;28;20194;-82
2021/05/10 09:37:59;;;;;;;0.90;0.68;;;;;22.50;100277.00;;;;5076052;28;20202;-81
2021/05/10 09:40:29;;;;;;;0.60;0.50;;;;;22.50;100284.00;;;;5075414;28;20195;-81
2021/05/10 09:42:58;;;;;;;0.90;0.52;;;;;22.40;100291.00;;;;5071399;28;20285;-81
2021/05/10 09:45:34;;;;;;;1.10;0.50;;;;;22.30;100297.00;;;;5084320;28;20198;-81
2021/05/10 09:48:06;;;;;;;0.65;0.52;;;;;22.30;100295.00;;;;5077873;28;20229;-80
2021/05/10 09:50:34;;;;;;;1.48;0.75;;;;;22.40;100311.00;;;;5081441;28;20203;-81
2021/05/10 09:53:02;;;;;;;0.82;0.70;;;;;22.40;100320.00;;;;5076753;28;20195;-80
2021/05/10 09:55:45;;;;;;;1.00;0.88;;;;;22.30;100333.00;;;;5071905;28;20207;-81
2021/05/10 09:58:12;;;;;;;1.30;1.17;;;;;22.30;100342.00;;;;5071878;28;20289;-80
2021/05/10 10:00:40;;;;;;;1.25;1.13;;;;;22.30;100352.00;;;;5076050;28;20191;-81
2021/05/10 10:03:35;;;;;;;3.03;1.10;;;;;22.20;100355.00;;;;5071555;28;20202;-81
2021/05/10 10:06:04;;;;;;;1.88;1.50;;;;;22.20;100358.00;;;;5077192;28;20245;-81
2021/05/10 10:08:31;;;;;;;1.77;1.42;;;;;22.20;100364.00;;;;5081684;28;20214;-86
2021/05/10 10:10:59;;;;;;;1.30;1.20;;;;;22.10;100379.00;;;;5082863;28;20226;-81
2021/05/10 10:13:27;;;;;;;1.60;1.50;;;;;22.10;100378.00;;;;5091336;28;20664;-80
2021/05/10 10:15:56;;;;;;;1.52;1.42;;;;;22.10;100376.00;;;;5092414;28;20337;-81
2021/05/10 10:18:26;;;;;;;2.22;1.58;;;;;22.00;100373.00;;;;5090245;28;20272;-80
2021/05/10 10:20:55;;;;;;;1.73;1.38;;;;;22.00;100382.00;;;;5089794;28;20271;-81
2021/05/10 10:23:24;;;;;;;2.25;1.35;;;;;22.00;100393.00;;;;5090695;28;20202;-81
2021/05/10 10:25:51;;;;;;;1.88;1.25;;;;;22.00;100397.00;;;;5082964;28;20202;-81
2021/05/10 10:28:20;;;;;;;2.97;1.58;;;;;22.00;100404.00;;;;5071143;28;20277;-80
2021/05/10 10:31:01;;;;;;;5.00;1.55;;;;;21.90;100396.00;;;;5070955;28;20206;-80
2021/05/10 10:33:36;;;;;;;1.70;1.45;;;;;21.90;100401.00;;;;5069798;28;20206;-80
2021/05/10 10:36:05;;;;;;;2.47;1.85;;;;;21.90;100405.00;;;;5077069;28;20251;-81
2021/05/10 10:38:34;;;;;;;2.08;1.83;;;;;21.90;100405.00;;;;5074406;28;20240;-82
2021/05/10 10:41:22;;;;;;;1.63;1.50;;;;;21.70;100418.00;;;;5073009;28;20205;-80
2021/05/10 10:43:50;;;;;;;2.05;1.52;;;;;21.80;100419.00;;;;5089137;28;20751;-80
2021/05/10 10:46:18;;;;;;;2.00;1.55;;;;;21.80;100432.00;;;;5090122;28;20210;-80
2021/05/10 10:48:47;;;;;;;3.85;1.55;;;;;21.80;100437.00;;;;5075843;28;20258;-80
2021/05/10 10:51:14;;;;;;;1.90;1.63;;;;;21.70;100435.00;;;;5068862;28;20206;-80
2021/05/10 10:53:42;;;;;;;2.83;1.70;;;;;21.70;100433.00;;;;5070189;28;20206;-80
2021/05/10 10:56:09;;;;;;;1.20;1.00;;;;;21.70;100449.00;;;;5070065;28;20623;-80
2021/05/10 10:58:39;;;;;;;1.75;1.38;;;;;21.70;100444.00;;;;5069748;28;20207;-80
2021/05/10 11:01:11;;;;;;;1.35;1.25;;;;;21.60;100447.00;;;;5070227;28;20615;-80
2021/05/10 11:03:39;;;;;;;1.63;1.48;;;;;21.60;100451.00;;;;5069912;28;20297;-80
2021/05/10 11:06:07;;;;;;;1.80;1.10;;;;;21.50;100445.00;;;;5068949;28;20202;-80
2021/05/10 11:08:51;;;;;;;3.35;1.45;;;;;21.40;100451.00;;;;5076817;28;20758;-80
2021/05/10 11:11:41;;;;;;;1.30;0.85;;;;;21.40;100451.00;;;;5089431;28;20198;-80
2021/05/10 11:14:15;;;;;;;1.52;1.00;;;;;21.40;100452.00;;;;5088650;28;20202;-80
2021/05/10 11:16:50;;;;;;;1.65;1.00;;;;;21.40;100451.00;;;;5081527;28;20220;-80
2021/05/10 11:19:29;;;;;;;1.35;1.13;;;;;21.40;100448.00;;;;5068653;28;20202;-80
2021/05/10 11:21:57;;;;;;;1.10;0.93;;;;;21.50;100449.00;;;;5069431;28;20198;-80
2021/05/10 11:24:30;;;;;;;1.05;0.95;;;;;21.60;100449.00;;;;5068808;28;20786;-80
2021/05/10 11:26:59;;;;;;;1.33;0.93;;;;;21.80;100451.00;;;;5069156;28;20666;-80
2021/05/10 11:29:45;;;;;;;1.35;1.10;;;;;21.90;100453.00;;;;5068475;28;20223;-81
2021/05/10 11:32:26;;;;;;;1.92;1.40;;;;;22.10;100441.00;;;;5068643;28;20290;-80
2021/05/10 11:34:53;;;;;;;1.92;1.30;;;;;22.30;100448.00;;;;5087250;28;20210;-80
2021/05/10 11:37:25;;;;;;;1.25;1.10;;;;;22.40;100454.00;;;;5088821;28;20206;-80
2021/05/10 11:39:56;;;;;;;1.48;1.10;;;;;22.50;100466.00;;;;5089030;28;20201;-80
2021/05/10 11:42:27;;;;;;;2.35;1.50;;;;;22.60;100465.00;;;;5088480;28;20202;-80
2021/05/10 11:45:00;;;;;;;4.38;1.77;;;;;22.70;100470.00;;;;5089332;28;20209;-80
2021/05/10 11:47:27;;;;;;;1.40;1.20;;;;;22.90;100486.00;;;;5089582;28;20297;-80
2021/05/10 11:49:54;;;;;;;2.20;1.45;;;;;23.00;100482.00;;;;5088014;28;20286;-80
2021/05/10 11:52:23;;;;;;;3.50;1.58;;;;;23.20;100483.00;;;;5088912;28;20297;-80
2021/05/10 11:54:52;;;;;;;1.92;0.95;;;;;23.30;100477.00;;;;5088641;28;20603;-80
2021/05/10 11:57:21;;;;;;;1.88;0.90;;;;;23.50;100481.00;;;;5088295;28;20206;-81
2021/05/10 11:59:51;;;;;;;1.40;0.93;;;;;23.60;100491.00;;;;5089002;28;20202;-80
2021/05/10 12:02:22;;;;;;;2.42;1.10;;;;;23.80;100510.00;;;;5088911;28;20689;-80
2021/05/10 12:04:51;;;;;;;2.30;1.15;;;;;23.90;100506.00;;;;5088638;28;20198;-80
2021/05/10 12:07:18;;;;;;;1.90;1.30;;;;;24.10;100508.00;;;;5087711;28;20217;-80
2021/05/10 12:09:48;;;;;;;1.63;1.38;;;;;24.20;100511.00;;;;5070683;28;20241;-80
2021/05/10 12:12:36;;;;;;;3.10;1.45;;;;;24.20;100522.00;;;;5068535;28;20603;-81
2021/05/10 12:15:14;;;;;;;2.95;1.52;;;;;24.40;100518.00;;;;5067548;28;20210;-80
2021/05/10 12:17:43;;;;;;;2.58;1.70;;;;;24.50;100529.00;;;;5068474;28;20988;-81
2021/05/10 12:20:13;;;;;;;6.13;1.95;;;;;24.60;100523.00;;;;5068059;28;20625;-81
2021/05/10 12:22:41;;;;;;;5.00;1.80;;;;;24.60;100519.00;;;;5068633;28;20217;-81
2021/05/10 12:25:20;;;;;;;4.15;1.90;;;;;24.60;100525.00;;;;5068685;28;20198;-81